Date,TemperatureHighF,TemperatureAvgF,TemperatureLowF,DewpointHighF,DewpointAvgF,DewpointLowF,HumidityHigh,HumidityAvg,HumidityLow,PressureMaxIn,PressureMinIn,WindSpeedMaxMPH,WindSpeedAvgMPH,GustSpeedMaxMPH,PrecipitationSumIn
2012-1-1,36,28,19,32,17,4,89,64,51,30.28,29.71,10,3,21,24.14
2012-1-2,23,19,11,5,2,-2,58,47,39,30.49,30.27,11,4,20,0.00
2012-1-3,30,18,11,16,4,-1,68,55,41,30.48,29.83,5,1,9,0.00
2012-1-4,43,31,25,26,21,16,80,67,49,30.06,29.85,4,0,5,0.02
2012-1-5,46,36,24,34,27,18,85,72,56,29.93,29.54,4,0,6,0.01
2012-1-6,50,43,37,31,28,22,65,55,42,29.81,29.53,6,2,11,0.01
2012-1-7,75,31,24,60,19,13,77,61,48,30.18,29.81,5,1,12,24.18
2012-1-8,44,32,18,27,22,12,82,67,48,30.26,30.02,4,1,7,0.00
2012-1-9,51,39,29,28,24,20,73,56,40,30.02,29.80,6,2,11,0.00
2012-1-10,56,38,26,34,27,19,79,65,41,29.93,29.63,4,1,8,0.00
2012-1-11,38,24,13,33,13,-1,82,63,50,29.86,29.61,8,4,16,0.02
2012-1-12,14,12,10,1,-2,-5,60,53,49,29.88,29.78,11,3,16,0.00
2012-1-13,36,11,8,2,-1,-11,62,56,32,30.04,29.87,5,1,9,24.20
2012-1-14,21,15,6,13,4,-100,72,62,50,30.09,29.99,5,1,84,24.20
2012-1-15,43,30,20,25,19,13,78,65,44,30.10,29.66,7,2,17,0.01
2012-1-16,33,28,24,23,18,6,78,64,42,29.87,29.66,9,2,13,0.00
2012-1-17,24,12,5,6,-4,-10,64,46,31,30.29,29.87,8,2,14,24.22
2012-1-18,28,10,-2,16,-4,-18,70,50,40,30.25,29.65,11,2,16,24.22
2012-1-19,78,-3,-12,32,-23,-27,83,32,22,30.24,29.86,12,2,13,24.22
2012-1-20,15,6,1,-2,-11,-22,62,44,27,30.27,30.14,2,0,4,0.00
2012-1-21,21,11,-1,12,-1,-11,68,57,41,30.27,29.76,8,1,21,0.00
2012-1-22,26,23,20,21,16,11,80,72,63,29.77,29.52,4,2,12,24.22
2012-1-23,26,23,20,21,15,12,80,70,66,29.90,29.52,0,0,1,0.00
2012-1-24,27,21,13,16,12,5,72,67,61,30.27,29.90,2,0,3,0.00
2012-1-25,37,29,24,25,20,16,75,69,55,30.27,29.84,6,1,9,0.03
2012-1-26,46,35,26,28,23,14,81,62,49,29.84,29.60,7,1,11,0.11
2012-1-27,36,28,19,30,18,8,81,66,44,29.91,29.66,8,1,15,0.04
2012-1-28,32,24,18,16,10,6,74,56,42,29.97,29.88,5,2,8,0.00
2012-1-29,28,19,12,15,3,-2,73,50,30,30.17,29.94,4,1,9,0.00
2012-1-30,51,33,19,29,20,5,76,59,41,29.95,29.56,5,1,10,0.01
2012-1-31,52,37,29,34,28,23,81,70,50,29.94,29.49,8,1,11,0.00
2012-2-1,36,33,31,31,28,25,84,80,75,30.07,29.95,3,0,4,0.00
2012-2-2,38,34,31,32,29,27,86,82,73,30.38,30.06,4,0,5,0.00
2012-2-3,35,32,27,28,26,20,83,78,70,30.47,30.38,6,1,8,0.00
2012-2-4,40,29,24,28,23,20,84,77,61,30.43,30.28,4,1,8,0.00
2012-2-5,31,29,28,24,22,20,82,77,73,30.34,30.27,4,1,7,0.00
2012-2-7,33,24,14,12,4,-4,51,43,37,30.51,30.45,6,2,10,0.00
2012-2-8,38,23,11,4,-2,-6,50,34,20,30.51,30.22,4,1,5,0.00
2012-2-9,42,28,16,22,11,-3,62,48,36,30.23,29.82,6,2,14,0.00
2012-2-10,31,14,6,16,-10,-21,54,33,20,30.54,29.91,10,5,19,0.00
2012-2-11,24,14,7,-6,-13,-21,42,26,20,30.55,30.49,7,2,11,0.00
2012-2-12,36,20,6,0,-5,-9,47,32,20,30.49,30.06,5,1,8,0.00
2012-2-13,33,24,16,22,8,-6,75,52,32,30.06,29.70,3,0,9,0.00
2012-2-14,37,30,23,25,22,17,78,70,56,29.74,29.65,4,1,8,0.05
2012-2-15,45,32,21,28,23,15,79,69,47,29.95,29.74,2,0,4,0.00
2012-2-16,43,39,35,28,24,20,75,54,42,30.05,29.95,6,2,10,0.01
2012-2-17,46,39,33,26,21,17,54,47,40,30.08,29.92,7,3,11,0.00
2012-2-18,43,32,17,18,13,6,64,46,31,30.22,30.07,4,1,8,0.00
2012-2-19,50,34,16,21,16,6,72,50,26,30.14,29.96,4,1,9,0.00
2012-2-20,46,35,28,28,20,15,85,57,32,30.06,29.60,7,2,17,0.00
2012-2-21,38,33,29,32,25,19,86,71,61,29.59,29.45,7,3,14,0.35
2012-2-22,43,30,20,24,17,13,75,59,41,29.52,29.36,4,1,8,0.07
2012-2-23,43,35,30,24,21,17,62,55,45,29.67,29.39,6,1,8,0.00
2012-2-24,32,25,14,22,10,-2,77,54,38,30.07,29.66,11,2,20,24.89
2012-2-25,32,21,11,15,4,-39,70,49,35,30.23,29.93,4,1,9,24.89
2012-2-26,38,30,26,27,16,10,70,56,45,30.03,29.56,13,4,17,24.89
2012-2-27,35,26,21,16,12,9,68,54,39,30.40,29.98,5,2,10,1.06
2012-2-28,33,30,25,27,20,11,82,66,50,30.34,29.81,7,1,14,0.17
2012-2-29,34,33,32,30,29,27,86,84,82,29.81,29.18,0,0,0,0.45
2012-3-1,34,34,34,30,30,30,86,86,86,29.20,29.20,0,0,0,0.00
2012-3-2,45,34,28,36,23,18,86,65,47,29.67,29.20,8,2,13,0.58
2012-3-3,31,23,16,18,10,2,71,58,47,29.86,29.55,9,2,14,0.00
2012-3-4,36,22,7,12,5,-4,63,50,33,30.09,29.84,4,1,8,0.00
2012-3-5,41,27,14,24,15,6,74,61,49,30.20,29.82,6,1,11,0.00
2012-3-6,63,49,32,44,33,22,80,57,37,29.81,29.43,4,1,8,0.00
2012-3-7,54,41,26,44,33,11,88,73,35,29.94,29.46,8,2,13,26.14
2012-3-8,42,30,21,22,13,-8,70,52,22,30.38,29.95,9,3,23,0.00
2012-3-9,39,28,15,16,3,-6,47,35,21,30.59,30.10,6,2,11,0.00
2012-3-10,70,53,34,35,27,15,54,37,22,30.09,29.79,9,3,14,0.00
2012-3-11,71,57,46,44,34,28,60,42,25,29.91,29.69,5,2,9,0.00
2012-3-12,54,49,45,51,46,39,99,91,60,29.81,29.55,4,1,11,0.01
2012-3-13,70,52,33,45,37,32,99,62,27,29.99,29.75,5,1,9,0.00
2012-3-14,78,62,50,52,46,27,87,58,33,29.82,29.65,6,1,7,0.00
2012-3-15,66,54,42,37,27,18,69,37,24,29.98,29.82,6,1,11,0.00
2012-3-16,84,63,42,61,49,36,82,63,41,29.92,29.66,4,1,8,0.00
2012-3-17,85,72,58,64,59,54,94,67,43,29.72,29.59,12,3,11,26.40
2012-3-18,84,75,69,60,59,57,73,58,43,29.66,29.56,8,2,14,0.00
2012-3-19,82,70,62,62,60,58,98,74,46,29.65,29.49,8,2,13,0.39
2012-3-20,66,62,57,62,56,52,98,82,65,29.85,29.59,4,1,8,0.02
2012-3-21,68,61,56,59,56,54,98,85,67,29.98,29.79,4,1,7,0.00
2012-3-22,72,62,57,63,59,56,99,92,67,29.99,29.85,5,1,9,0.14
2012-3-23,79,66,60,66,58,53,99,78,42,29.89,29.75,4,1,7,0.01
2012-3-24,73,61,52,58,54,49,98,79,52,29.96,29.81,5,1,11,0.00
2012-3-25,61,50,39,49,33,22,90,56,27,30.16,29.96,8,3,11,0.00
2012-3-26,50,41,37,31,28,22,77,60,33,30.26,29.85,10,4,22,0.04
2012-3-27,71,56,42,51,40,28,72,57,30,29.85,29.47,11,4,17,0.00
2012-3-28,59,48,40,40,35,32,81,63,41,30.02,29.74,7,2,12,0.00
2012-3-29,65,51,39,47,36,30,93,60,37,30.04,29.71,9,3,14,0.12
2012-3-30,58,47,40,46,42,38,93,82,62,29.82,29.70,6,1,11,0.00
2012-3-31,52,47,42,48,44,40,99,90,80,29.81,29.65,7,2,14,0.00
2012-4-1,70,56,47,48,44,38,92,68,32,29.67,29.47,13,3,17,27.12
2012-4-2,74,62,50,53,41,34,89,48,35,29.73,29.54,11,4,17,0.21
2012-4-3,68,55,47,53,36,21,92,56,20,30.03,29.71,10,4,19,0.09
2012-4-4,68,55,41,30,24,16,64,33,19,30.04,29.84,7,2,11,0.00
2012-4-5,64,52,42,32,26,17,66,38,20,30.11,29.93,7,2,11,0.00
2012-4-6,67,52,36,32,26,18,73,41,17,30.21,29.99,8,2,14,0.00
2012-4-7,62,51,46,51,36,28,99,60,35,30.06,29.94,11,2,17,0.14
2012-4-8,66,56,48,29,24,15,43,31,17,30.13,29.96,9,2,16,0.00
2012-4-9,50,44,33,26,20,15,50,39,29,30.13,30.00,11,3,17,0.00
2012-4-10,48,38,30,20,15,9,56,41,23,30.26,30.13,10,3,14,27.56
2012-4-11,60,41,28,25,19,13,62,44,22,30.36,30.15,3,1,5,0.00
2012-4-12,72,56,40,43,24,19,79,34,16,30.16,29.93,5,1,9,0.28
2012-4-13,72,57,48,49,44,34,97,67,35,29.95,29.66,11,3,17,0.03
2012-4-14,81,64,51,56,48,38,93,62,22,29.71,29.51,4,2,7,0.05
2012-4-15,77,63,50,66,54,49,99,75,62,29.52,29.08,4,0,6,0.89
2012-4-16,50,42,35,49,35,29,99,79,61,30.11,29.19,10,2,17,0.38
2012-4-17,64,51,39,48,36,29,90,57,38,30.22,29.92,5,1,9,0.20
2012-4-18,68,57,50,51,46,38,90,68,44,29.92,29.78,5,3,13,0.06
2012-4-19,52,48,43,38,36,29,81,65,42,29.98,29.87,7,4,13,0.01
2012-4-20,63,51,34,38,25,20,81,42,21,30.03,29.88,6,3,13,0.01
2012-4-21,63,55,44,44,32,22,94,52,21,29.93,29.84,4,3,7,29.42
2012-4-22,56,49,42,45,42,37,95,77,56,30.18,29.87,3,2,4,0.22
2012-4-23,71,54,36,44,38,33,99,62,30,30.17,29.77,4,1,8,29.64
2012-4-24,80,64,50,45,40,29,75,46,21,29.93,29.48,5,1,9,29.64
2012-4-25,79,67,52,53,48,43,73,51,39,29.52,29.46,6,2,8,29.66
2012-4-26,77,54,47,51,29,14,71,41,19,30.09,29.49,8,4,16,0.00
2012-4-27,58,52,44,29,22,19,49,31,25,30.14,29.94,8,2,15,0.00
2012-4-28,54,45,40,40,33,17,96,67,28,30.17,29.89,8,3,15,0.22
2012-4-29,62,52,44,47,42,39,92,69,49,30.18,29.96,7,2,11,0.07
2012-4-30,69,55,45,52,48,43,98,78,50,29.96,29.73,4,1,7,0.01
2012-5-1,54,54,54,51,51,51,89,89,89,29.75,29.75,0,0,1,0.00
2012-5-10,80,74,63,45,43,39,49,34,24,29.80,29.71,7,2,13,0.01
2012-5-11,75,63,51,56,49,31,99,63,21,30.16,29.70,7,2,14,33.09
2012-5-12,77,62,49,51,38,21,99,52,14,30.29,30.15,4,1,8,0.01
2012-5-13,82,63,41,42,36,28,93,46,14,30.22,29.96,6,1,97,33.10
2012-5-14,94,74,52,52,42,33,69,37,12,29.97,29.69,5,1,10,0.00
2012-5-15,78,69,58,46,39,31,61,35,21,29.99,29.69,8,2,14,33.10
2012-5-16,79,63,45,43,35,27,79,40,16,30.10,29.92,3,1,8,0.00
2012-5-17,87,70,56,48,43,37,57,39,23,29.94,29.62,66,2,66,0.00
2012-5-18,98,82,66,59,51,41,55,36,18,29.69,29.55,6,2,17,0.00
2012-5-19,92,79,64,66,59,52,96,52,35,29.76,29.60,8,2,16,0.23
2012-5-20,65,60,53,63,52,42,99,81,43,30.05,29.71,8,2,16,0.02
2012-5-21,78,71,62,53,41,36,70,36,23,30.16,30.04,2,1,3,0.00
2012-5-22,91,81,75,50,42,37,38,25,20,30.11,29.55,4,2,9,0.00
2012-5-23,91,74,65,67,54,47,99,52,29,29.58,29.23,8,2,18,0.74
2012-5-24,65,62,57,64,60,52,99,93,74,29.61,29.22,7,1,14,36.33
2012-5-25,75,64,51,56,51,45,98,65,40,30.02,29.61,4,1,7,0.00
2012-5-26,65,61,-31,63,58,-30,99,90,76,30.19,29.77,6,1,11,36.79
2012-5-27,97,78,63,73,67,62,99,73,41,29.78,29.43,8,2,14,0.48
2012-5-28,86,72,60,69,59,15,99,68,41,29.93,29.49,97,2,98,37.46
2012-5-29,68,60,53,50,46,39,73,60,45,29.87,29.64,7,2,13,37.46
2012-5-30,68,57,48,46,42,39,92,58,35,29.96,29.85,5,2,8,0.00
2012-5-31,72,60,50,50,41,36,85,52,29,29.98,29.88,5,1,9,0.01
2012-6-1,79,63,15,56,38,-14,91,45,20,29.95,29.68,3,1,4,37.46
2012-6-2,82,69,60,50,44,39,53,42,23,29.70,29.62,7,1,9,0.00
2012-6-3,85,74,65,56,51,46,69,46,28,29.75,29.65,4,1,6,0.00
2012-6-4,91,76,58,61,56,52,91,55,29,29.84,29.73,4,1,5,0.00
2012-6-5,91,76,60,62,56,52,94,55,28,29.92,29.81,6,1,10,0.00
2012-6-6,90,74,61,64,57,53,85,58,29,29.96,29.87,6,1,11,0.01
2012-6-7,90,77,63,63,60,55,78,56,39,30.00,29.85,6,1,8,0.00
2012-6-8,96,81,70,68,60,58,68,52,33,29.87,29.61,5,1,8,0.00
2012-6-9,99,85,72,61,56,52,57,40,23,29.65,29.49,7,2,11,0.00
2012-6-10,97,83,64,70,62,54,98,52,31,29.67,29.43,7,2,17,0.60
2012-6-11,79,68,57,64,55,41,99,66,39,29.91,29.59,7,2,15,0.02
2012-6-12,76,62,51,48,43,37,78,53,28,30.09,29.91,7,2,14,0.00
2012-6-13,81,66,53,53,49,46,84,56,31,30.06,29.79,8,1,14,0.00
2012-6-14,69,66,60,68,59,50,99,79,55,29.84,29.67,8,2,17,38.77
2012-6-15,86,75,61,67,62,57,99,69,39,29.88,29.79,4,1,8,0.00
2012-6-16,89,73,63,72,65,54,99,76,48,29.87,29.65,6,1,11,0.12
2012-6-17,86,69,56,67,58,52,97,69,32,29.88,29.35,4,1,11,39.12
2012-6-18,99,82,66,78,66,54,99,66,24,29.54,29.30,4,1,9,0.14
2012-6-19,99,83,66,75,68,58,99,64,39,29.65,29.46,8,2,16,0.44
2012-6-20,85,76,64,70,67,63,99,77,59,29.79,29.51,8,1,11,0.15
2012-6-21,83,71,60,63,57,53,99,66,38,29.89,29.77,7,2,11,0.00
2012-6-22,88,74,58,64,56,50,97,58,29,29.93,29.82,5,1,9,0.02
2012-6-23,85,74,65,64,60,56,80,63,44,29.87,29.76,7,1,10,0.00
2012-6-24,90,78,66,70,64,51,95,65,41,30.00,29.80,8,2,11,0.00
2012-6-25,86,72,59,54,50,45,73,47,28,30.09,29.92,7,1,13,0.00
2012-6-26,88,73,60,57,53,48,82,52,27,29.97,29.63,8,2,13,0.00
2012-6-27,101,85,69,75,66,57,72,54,39,29.64,29.48,8,1,9,0.00
2012-6-28,94,82,67,74,60,50,81,51,25,29.86,29.59,8,1,13,0.00
2012-6-29,97,82,61,65,60,50,93,54,21,29.81,29.64,3,0,23,40.52
2012-6-30,98,84,68,70,64,58,95,56,27,29.78,29.67,6,1,9,0.01
2012-7-1,100,86,71,73,69,65,87,59,38,29.81,29.70,7,1,11,0.00
2012-7-2,105,90,74,76,73,60,96,60,35,29.75,29.60,5,1,9,40.52
2012-7-3,102,88,69,77,72,65,98,63,42,29.79,29.56,8,1,16,0.07
2012-7-4,106,93,81,79,75,71,90,60,34,29.66,29.57,5,1,11,0.00
2012-7-5,100,89,80,76,71,64,84,58,32,29.83,29.66,8,1,14,0.00
2012-7-6,106,88,68,80,70,63,97,60,32,29.92,29.67,7,2,11,0.31
2012-7-7,90,77,64,67,61,51,99,62,34,30.03,29.91,8,2,13,0.00
2012-7-8,95,83,70,68,62,58,80,52,31,30.06,29.93,5,1,10,0.00
2012-7-9,91,80,68,66,56,48,74,47,26,30.03,29.97,6,1,11,0.00
2012-7-10,94,80,64,65,55,43,87,47,20,30.08,29.96,8,1,14,0.00
2012-7-11,96,81,62,62,58,50,84,49,25,30.07,29.91,6,1,8,0.00
2012-7-12,97,81,65,66,62,57,87,55,31,29.95,29.83,8,1,12,0.00
2012-7-13,95,77,68,70,68,64,95,75,41,29.89,29.77,5,1,11,0.55
2012-7-14,97,82,67,73,68,62,99,67,37,29.90,29.81,4,1,6,0.00
2012-7-15,100,85,71,75,69,64,95,62,34,29.93,29.81,4,0,8,0.00
2012-7-16,102,89,77,71,68,63,79,53,30,29.82,29.57,10,2,12,0.00
2012-7-17,100,85,76,75,72,70,84,68,43,29.78,29.62,6,1,10,0.00
2012-7-18,87,76,70,73,71,69,98,84,59,29.84,29.71,8,2,11,0.24
2012-7-19,90,77,69,69,68,64,95,74,44,29.95,29.83,6,1,8,0.00
2012-7-20,95,80,68,71,66,61,86,65,41,30.03,29.87,5,1,8,0.01
2012-7-21,95,80,70,73,70,67,98,74,42,29.99,29.84,4,1,7,0.35
2012-7-22,96,84,75,76,72,68,91,69,43,29.89,29.72,4,1,7,0.00
2012-7-23,104,88,76,76,70,56,97,61,24,29.83,29.76,5,1,8,42.05
2012-7-24,86,77,70,74,71,68,98,85,66,29.88,29.68,113,1,113,43.28
2012-7-25,99,84,75,76,73,9,93,71,40,29.68,29.42,4,1,115,43.29
2012-7-26,90,79,69,74,62,57,95,60,35,29.73,29.52,6,2,98,43.29
2012-7-27,85,73,64,64,61,57,94,68,42,30.01,29.73,6,1,11,0.00
2012-7-28,91,77,61,69,63,60,99,66,39,30.05,29.88,6,1,9,0.00
2012-7-29,91,77,67,72,68,66,99,77,45,29.95,29.80,4,1,6,0.38
2012-7-30,95,81,69,72,66,59,94,65,32,29.85,29.73,5,1,10,43.67
2012-7-31,95,81,66,69,63,56,95,59,31,29.91,29.81,4,1,6,0.00
2012-8-1,97,81,68,74,67,60,87,64,42,29.85,29.64,6,1,11,0.00
2012-8-2,96,84,70,69,64,60,82,53,31,29.77,29.68,4,1,8,0.00
2012-8-3,96,82,66,70,65,63,95,60,35,29.79,29.62,6,1,12,0.29
2012-8-4,84,72,65,67,62,56,99,74,41,29.84,29.66,6,1,9,44.12
2012-8-5,84,71,58,58,53,45,87,57,28,30.08,29.84,8,2,15,44.12
2012-8-6,95,76,58,68,60,55,93,62,30,30.04,29.81,4,1,7,0.00
2012-8-7,93,80,69,69,60,49,97,56,24,29.90,29.81,4,1,8,0.00
2012-8-8,86,72,65,65,62,58,92,73,43,29.92,29.80,7,1,10,0.04
2012-8-9,81,68,60,66,60,54,99,76,42,30.02,29.85,7,2,12,0.17
2012-8-10,89,69,57,58,53,49,94,61,33,30.07,29.87,8,2,14,44.32
2012-8-11,86,70,52,64,52,44,99,59,29,30.05,29.88,3,0,5,0.00
2012-8-12,71,66,61,61,59,56,93,78,61,29.93,29.88,3,0,5,0.00
2012-8-13,87,72,56,64,58,53,99,66,35,29.95,29.82,6,1,10,0.01
2012-8-14,86,72,59,64,56,48,89,61,32,29.90,29.77,5,0,8,0.00
2012-8-15,89,75,64,71,64,56,99,70,43,29.78,29.55,8,1,11,0.50
2012-8-16,74,66,57,69,54,48,87,66,42,29.94,29.63,9,3,14,0.00
2012-8-17,80,65,50,52,46,40,85,54,24,30.02,29.92,4,1,8,0.00
2012-8-18,85,69,53,59,52,46,95,59,29,29.96,29.82,4,1,6,0.02
2012-8-19,83,68,55,63,51,35,98,61,20,29.94,29.84,5,1,11,0.02
2012-8-20,83,67,48,58,46,36,96,55,20,29.96,29.86,4,0,6,0.00
2012-8-21,87,70,52,60,51,45,98,56,24,30.00,29.83,3,0,7,44.87
2012-8-22,87,69,56,65,58,52,91,70,36,29.92,29.77,4,1,8,0.03
2012-8-23,90,78,69,68,63,58,88,61,43,29.79,29.64,8,1,15,0.06
2012-8-24,96,82,67,71,66,60,88,62,44,29.75,29.65,5,1,11,0.00
2012-8-25,79,72,67,69,66,63,91,81,59,29.85,29.75,4,0,7,0.05
2012-8-26,92,76,66,70,65,57,97,72,33,29.94,29.83,3,0,4,0.00
2012-8-27,92,76,59,66,59,54,99,62,29,30.03,29.94,4,1,8,0.00
2012-8-28,91,76,64,69,64,59,88,69,47,30.03,29.85,7,1,11,0.00
2012-8-29,98,83,68,68,64,60,90,58,30,29.88,29.63,7,1,11,0.00
2012-8-30,97,84,74,68,63,57,73,51,28,29.81,29.60,8,2,11,0.00
2012-8-31,90,77,62,61,52,42,81,46,19,30.01,29.81,5,1,10,0.00
2012-9-1,90,76,62,55,50,43,66,42,23,30.04,29.89,5,1,9,0.00
2012-9-2,93,77,59,70,62,53,88,62,43,29.93,29.69,6,1,11,0.00
2012-9-3,99,82,70,70,61,46,86,53,19,29.79,29.70,4,1,8,0.00
2012-9-4,96,78,68,67,60,45,77,58,23,29.78,29.62,5,1,8,0.00
2012-9-5,88,74,61,63,53,41,91,52,26,29.81,29.58,8,1,11,0.02
2012-9-6,87,70,54,61,52,44,92,58,23,29.89,29.73,4,1,8,0.00
2012-9-7,74,65,57,59,51,42,87,63,36,29.95,29.78,8,2,12,0.00
2012-9-8,81,64,50,53,47,42,93,58,29,29.96,29.68,9,2,45,45.02
2012-9-9,86,64,52,56,50,46,98,63,30,30.10,29.68,6,1,11,0.00
2012-9-10,88,71,51,53,48,44,87,51,23,30.02,29.70,8,2,11,0.00
2012-9-11,100,81,67,56,51,-100,62,39,1,29.73,29.54,7,2,14,0.00
2012-9-12,80,62,55,57,52,45,93,71,38,30.17,29.70,4,1,8,0.08
2012-9-13,81,64,52,58,42,24,99,56,14,30.25,30.13,4,1,8,0.01
2012-9-14,82,65,46,47,39,32,80,43,17,30.26,30.15,5,1,8,0.00
2012-9-15,90,69,50,52,44,38,86,46,18,30.17,29.85,7,1,10,0.00
2012-9-16,85,72,62,57,51,41,75,50,34,29.86,29.73,5,2,11,0.00
2012-9-17,67,57,51,52,43,32,98,62,32,29.93,29.80,6,2,11,0.23
2012-9-18,66,54,43,42,35,25,85,53,23,29.97,29.71,7,1,10,45.34
2012-9-19,78,61,53,50,41,33,76,49,26,29.79,29.53,6,2,17,0.01
2012-9-20,69,59,50,45,37,29,74,48,23,29.83,29.75,8,2,14,0.00
2012-9-21,65,55,43,48,42,35,83,64,42,29.83,29.71,8,1,16,0.01
2012-9-22,63,49,40,42,34,24,85,58,26,30.20,29.83,7,2,12,0.00
2012-9-23,66,49,34,40,31,24,93,57,21,30.26,30.10,5,1,13,45.36
2012-9-24,81,59,40,42,35,29,72,45,19,30.10,29.62,6,1,10,0.00
2012-9-25,73,57,44,45,39,31,84,54,22,29.89,29.67,6,1,10,0.00
2012-9-26,70,53,39,46,37,31,94,61,25,30.16,29.84,7,1,11,0.00
2012-9-27,75,54,36,47,38,31,99,62,22,30.23,30.07,4,0,5,0.00
2012-9-28,82,60,41,54,42,33,99,59,18,30.16,29.98,3,0,4,0.00
2012-9-29,88,65,46,50,44,39,88,52,22,30.05,29.88,4,0,8,0.00
2012-9-30,82,63,46,48,42,35,89,52,19,29.96,29.78,3,0,4,0.00
2012-10-1,74,62,53,50,44,38,71,51,33,29.87,29.73,6,2,11,45.36
2012-10-2,78,61,41,49,40,34,91,51,22,29.92,29.72,4,1,5,0.00
2012-10-3,83,67,54,52,42,34,89,43,19,29.83,29.70,7,1,10,0.00
2012-10-4,64,50,43,46,37,30,80,60,40,30.09,29.66,9,4,17,0.00
2012-10-5,50,42,36,32,28,26,74,57,41,30.10,30.02,10,3,17,0.00
2012-10-6,46,40,33,33,26,21,79,61,39,30.23,30.08,7,2,12,0.00
2012-10-7,58,41,27,28,22,14,87,52,20,30.18,29.82,8,1,11,0.00
2012-10-8,64,51,37,42,32,25,66,50,30,29.82,29.48,6,1,11,0.00
2012-10-9,54,47,39,43,34,26,93,63,39,29.92,29.64,8,2,15,0.01
2012-10-10,55,45,32,33,26,23,81,50,30,30.03,29.76,4,1,7,0.00
2012-10-11,55,46,32,36,25,8,80,46,20,30.36,29.70,8,2,11,0.00
2012-10-12,57,42,25,32,19,12,83,44,18,30.42,29.97,5,1,10,0.00
2012-10-13,54,51,48,53,46,20,99,87,32,29.97,29.59,4,1,10,0.03
2012-10-14,62,52,45,50,42,30,99,73,31,29.80,29.64,7,2,16,0.01
2012-10-15,68,54,36,43,37,32,92,56,32,29.88,29.64,3,0,5,0.00
2012-10-16,72,59,50,51,47,41,92,64,45,29.64,29.28,5,1,8,0.00
2012-10-17,63,54,48,53,47,41,98,78,52,29.28,29.03,8,2,14,0.00
2012-10-18,52,47,44,45,43,42,98,89,74,29.31,29.09,2,0,6,0.00
2012-10-19,54,47,38,51,44,37,99,91,64,29.67,29.31,6,1,10,0.13
2012-10-20,61,46,34,48,41,33,99,86,53,29.75,29.67,4,1,9,0.00
2012-10-21,76,56,42,53,47,42,99,74,39,29.80,29.64,6,1,12,0.00
2012-10-22,65,57,50,54,48,45,92,72,53,29.87,29.78,8,2,12,0.00
2012-10-23,65,59,55,62,57,54,99,94,82,29.78,29.58,5,1,8,0.22
2012-10-24,61,56,48,58,54,47,99,96,83,29.77,29.65,8,2,11,0.11
2012-10-25,48,40,35,47,36,26,99,88,62,30.09,29.62,8,4,17,0.74
2012-10-26,41,37,31,27,25,22,74,61,49,30.31,30.09,6,2,13,0.00
2012-10-27,49,36,26,32,24,18,93,63,31,30.32,30.23,4,1,7,0.00
2012-10-28,52,37,26,30,23,21,87,61,32,30.32,30.20,4,0,9,0.00
2012-10-29,46,38,29,30,25,21,73,59,49,30.28,30.19,4,1,7,0.00
2012-10-30,54,39,28,32,23,10,82,56,30,30.21,30.00,6,2,13,0.00
2012-10-31,56,40,24,31,19,12,68,47,19,30.05,29.85,4,1,8,0.00
2012-11-1,50,42,31,36,28,21,81,58,38,30.01,29.85,7,2,12,0.00
2012-11-2,42,35,26,28,25,20,85,66,54,30.11,30.01,4,1,8,0.00
2012-11-3,42,39,37,30,27,26,65,63,58,30.17,30.09,2,0,5,0.00
2012-11-4,44,39,28,38,33,24,93,78,65,30.19,30.07,4,1,5,0.01
2012-11-5,44,42,38,38,36,33,96,80,69,30.14,29.87,4,1,8,46.62
2012-11-6,46,41,39,41,38,34,99,87,69,29.92,29.68,7,2,14,0.30
2012-11-7,52,42,37,38,34,31,88,76,55,30.06,29.91,4,0,7,0.00
2012-11-8,60,44,35,39,34,29,85,71,45,30.01,29.82,6,1,11,0.00
2012-11-9,56,46,36,41,38,33,94,76,56,30.00,29.85,7,3,12,0.00
2012-11-10,73,55,45,59,50,40,99,85,60,29.85,29.34,8,3,15,0.30
2012-11-11,55,34,23,54,28,9,97,79,55,29.92,29.41,7,1,10,0.03
2012-11-12,28,24,20,17,13,8,82,63,52,30.25,29.91,0,0,0,0.00
2012-11-13,48,33,22,28,20,14,71,60,32,30.31,30.20,2,0,4,0.00
2012-11-14,37,37,37,28,28,28,67,67,67,30.23,30.23,0,0,2,0.00
2012-11-15,37,37,37,28,28,28,67,67,67,30.23,30.23,0,0,2,0.00
2012-11-16,50,40,37,28,22,13,67,50,24,30.42,30.23,3,0,5,0.00
2012-11-17,57,47,38,39,31,20,78,54,48,30.30,30.13,2,1,4,0.00
2012-11-18,57,56,48,39,38,34,61,51,50,30.13,30.00,4,2,5,0.00
2012-11-19,65,51,40,42,38,34,88,61,40,30.02,29.90,4,0,5,47.25
2012-11-20,59,43,34,39,34,30,95,72,34,30.12,29.99,3,0,8,0.00
2012-11-21,66,53,39,45,38,32,80,60,39,30.00,29.59,4,1,13,0.00
2012-11-22,60,46,24,45,36,15,91,70,52,29.95,29.51,8,3,19,0.01
2012-11-23,27,22,15,17,11,5,82,64,51,30.35,29.95,9,4,17,0.00
2012-11-24,30,21,10,17,10,2,75,61,47,30.35,29.76,3,1,8,0.00
2012-11-25,31,29,24,22,19,5,72,66,45,30.13,29.75,6,2,11,0.00
2012-11-26,24,16,10,5,2,-1,63,52,36,30.40,30.13,6,1,10,0.00
2012-11-27,39,26,16,25,14,2,74,59,47,30.33,30.01,4,1,7,0.00
2012-11-28,40,30,25,24,20,16,74,64,50,30.31,30.04,4,1,10,0.00
2012-11-29,43,32,22,26,22,16,84,67,50,30.06,29.98,8,2,12,0.00
2012-11-30,37,34,31,31,27,24,86,76,70,30.13,30.01,5,2,9,0.00
2012-12-1,48,41,34,44,37,31,93,87,82,30.02,29.63,4,1,9,0.00
2012-12-2,40,35,29,39,34,27,97,93,89,29.95,29.72,5,1,10,0.00
2012-12-3,57,49,39,54,46,38,98,88,63,29.73,29.45,8,2,17,0.03
2012-12-5,40,39,38,24,22,19,53,50,46,29.89,29.80,4,2,8,0.01
2012-12-6,48,41,28,37,28,16,76,60,51,29.97,29.69,6,2,14,0.00
2012-12-7,32,28,21,24,20,14,84,73,59,30.01,29.95,4,1,6,0.00
2012-12-8,38,30,26,27,22,19,80,72,58,30.01,29.94,4,1,8,0.00
2012-12-9,32,30,19,30,26,14,91,88,67,29.97,29.77,4,1,8,0.00
2012-12-10,26,12,3,13,2,-7,79,64,46,29.95,29.84,3,0,4,0.00
2012-12-11,21,14,5,11,5,-4,73,67,60,30.01,29.78,2,0,4,0.00
2012-12-12,47,30,8,28,19,0,80,65,42,30.01,29.76,5,1,10,0.06
2012-12-13,43,32,25,24,19,14,73,59,44,30.09,29.86,3,0,5,0.00
2012-12-14,38,29,19,24,19,12,81,67,52,30.10,29.84,5,1,8,0.00
2012-12-15,39,37,34,34,32,22,89,82,60,29.84,29.43,5,1,8,0.39
2012-12-16,37,30,20,34,26,14,89,85,77,29.79,29.45,0,0,0,0.07
2012-12-17,29,24,20,21,17,15,82,75,63,29.79,29.65,0,0,0,0.00
2012-12-18,30,26,24,22,18,17,77,73,68,29.78,29.61,0,0,0,0.00
2012-12-19,41,30,27,29,24,15,84,76,58,29.99,29.78,2,0,4,0.01
2012-12-20,27,22,13,17,13,3,79,68,60,30.05,29.80,8,3,17,0.00
2012-12-21,25,15,8,5,1,-2,64,54,40,30.25,30.05,5,1,10,0.00
2012-12-22,35,19,9,14,6,-2,69,56,39,30.19,29.90,7,1,10,0.00
2012-12-23,23,16,10,10,2,-100,70,56,45,30.14,30.01,6,2,11,0.00
2012-12-24,35,14,6,-3,-62,-100,53,18,35,30.30,29.87,5,1,8,47.83
2012-12-25,18,6,-1,-3,-8,-12,59,50,35,30.50,30.29,4,1,7,0.00
2012-12-26,23,11,4,2,-4,-8,55,48,33,30.43,30.24,4,1,6,0.00
2012-12-27,23,16,8,13,6,-5,76,63,50,30.26,30.12,4,0,5,0.00
2012-12-28,29,21,16,17,12,8,76,68,54,30.13,29.96,4,1,6,0.00
2012-12-29,22,14,6,8,4,-4,71,63,51,30.17,30.01,4,1,8,0.00
2012-12-30,23,13,6,12,3,-4,73,63,53,30.17,29.86,3,0,7,47.83
2012-12-31,20,13,0,12,0,-13,73,56,29,30.28,29.89,4,2,8,0.00
2013-1-1,20,6,-6,12,-5,-16,72,57,43,30.31,30.00,4,1,11,47.83